Arrowhead, Minnesota
Current Conditions -  °F | °C
As of 1:16 AM on Sunday 26 Oct 2014 (Local Time) from KCOQ Reporting Station
Clear Clear  
Wind Chill:   Ceiling: Unl
Heat Index:   Visibility: 10mi
Dew Point: -3°   Wind: 6mph
Humidity: 61%   Direction: 260°W
Pressure: 29.98"   Gusts: NA
Location:  46.8211°N, 92.6871°W
Report Text: KCOQ 260616Z AUTO 26005KT 10SM CLR 04/M03 A2998 RMK AO2
Loading
Personal Weather Stations






























Interactive Weather Map New forecast layout! Learn more

10-Day Weather Forecast

Advertisements
Track Severe Weather on mobile